Time;durP1;ratioP1;P1;durP2;ratioP2;P2;SDS_P1;SDS_P2;PMS_P1;PMS_P2;Temp;Humidity;BMP_temperature;BMP_pressure;BME280_temperature;BME280_humidity;BME280_pressure;Samples;Min_cycle;Max_cycle;Signal;HPM_P1;HPM_P2
2023/09/29 00:00:17;;;;;;;9.70;7.78;;;15.70;99.90;;;;;;5022270;28;20099;-39
2023/09/29 00:02:46;;;;;;;15.55;8.18;;;15.70;99.90;;;;;;5019994;28;20125;-39
2023/09/29 00:05:17;;;;;;;13.15;8.32;;;15.70;99.90;;;;;;5014851;28;20494;-38
2023/09/29 00:07:46;;;;;;;11.50;8.47;;;15.60;99.90;;;;;;5020649;28;20049;-40
2023/09/29 00:10:17;;;;;;;10.00;8.30;;;15.60;99.90;;;;;;5014616;28;20054;-40
2023/09/29 00:12:45;;;;;;;18.27;8.27;;;15.60;99.90;;;;;;5019063;28;20049;-39
2023/09/29 00:15:13;;;;;;;10.60;7.38;;;15.60;99.90;;;;;;5016381;28;20072;-38
2023/09/29 00:17:41;;;;;;;11.60;8.00;;;15.50;99.90;;;;;;5015883;28;20486;-39
2023/09/29 00:22:46;;;;;;;11.27;8.05;;;15.50;99.90;;;;;;5017094;28;20161;-41
2023/09/29 00:25:14;;;;;;;12.27;8.45;;;15.40;99.90;;;;;;5018852;28;20052;-41
2023/09/29 00:27:41;;;;;;;13.05;8.75;;;15.40;99.90;;;;;;5019384;28;20041;-40
2023/09/29 00:30:12;;;;;;;9.80;8.43;;;15.40;99.90;;;;;;5011068;28;20057;-40
2023/09/29 00:32:48;;;;;;;11.88;7.57;;;15.40;99.90;;;;;;5022147;28;20041;-39
2023/09/29 00:35:24;;;;;;;10.88;7.97;;;15.30;99.90;;;;;;5021156;28;20041;-38
2023/09/29 00:37:57;;;;;;;11.55;8.10;;;15.30;99.90;;;;;;5018857;28;20115;-38
2023/09/29 00:40:26;;;;;;;11.00;8.07;;;15.30;99.90;;;;;;5031884;28;20080;-40
2023/09/29 00:42:54;;;;;;;11.02;8.05;;;15.30;99.90;;;;;;5029773;28;20052;-42
2023/09/29 00:45:23;;;;;;;9.65;8.32;;;15.20;99.90;;;;;;5031465;28;20041;-40
2023/09/29 00:47:57;;;;;;;12.38;8.73;;;15.20;99.90;;;;;;5040865;28;20053;-41
2023/09/29 00:50:29;;;;;;;13.70;8.68;;;15.20;99.90;;;;;;5038833;28;20069;-37
2023/09/29 00:52:59;;;;;;;10.88;8.15;;;15.10;99.90;;;;;;5040674;28;20504;-40
2023/09/29 00:55:29;;;;;;;12.70;8.35;;;15.10;99.90;;;;;;5022808;28;20608;-40
2023/09/29 00:57:58;;;;;;;11.88;7.97;;;15.00;99.90;;;;;;5021339;28;20043;-38
2023/09/29 01:02:59;;;;;;;15.07;9.05;;;15.00;99.90;;;;;;5013663;28;20485;-40
2023/09/29 01:05:29;;;;;;;;;;;14.90;99.90;;;;;;5021035;28;20044;-38
2023/09/29 01:07:57;;;;;;;12.60;8.30;;;14.80;99.90;;;;;;5020594;28;20274;-39
2023/09/29 01:10:25;;;;;;;10.40;8.32;;;14.70;99.90;;;;;;5024999;28;20046;-40
2023/09/29 01:12:53;;;;;;;11.63;8.10;;;14.70;99.90;;;;;;5018287;28;20089;-39
2023/09/29 01:15:21;;;;;;;13.73;8.68;;;14.70;99.90;;;;;;5014457;28;20197;-40
2023/09/29 01:17:48;;;;;;;11.07;8.80;;;14.70;99.90;;;;;;5018107;28;20076;-37
2023/09/29 01:20:29;;;;;;;11.98;8.80;;;14.60;99.90;;;;;;5020849;28;20491;-40
2023/09/29 01:22:58;;;;;;;13.05;9.00;;;14.50;99.90;;;;;;5024546;28;20142;-39
2023/09/29 01:25:25;;;;;;;15.10;9.27;;;14.50;99.90;;;;;;5021240;28;20495;-40
2023/09/29 01:27:56;;;;;;;10.13;8.50;;;14.50;99.90;;;;;;5023601;28;20038;-36
2023/09/29 01:30:25;;;;;;;13.00;9.07;;;14.50;99.90;;;;;;5015072;28;20061;-41
2023/09/29 01:32:56;;;;;;;12.00;8.15;;;14.50;99.90;;;;;;5020848;28;20307;-39
2023/09/29 01:35:24;;;;;;;10.10;8.45;;;14.50;99.90;;;;;;5024160;28;20066;-38
2023/09/29 01:37:55;;;;;;;11.18;8.23;;;14.50;99.90;;;;;;5018614;28;20391;-40
2023/09/29 01:40:23;;;;;;;11.52;8.38;;;14.50;99.90;;;;;;5013735;28;20126;-39
2023/09/29 01:42:51;;;;;;;11.98;8.75;;;14.50;99.90;;;;;;5013533;28;20506;-39
2023/09/29 01:45:21;;;;;;;12.50;8.82;;;14.50;99.90;;;;;;5011533;28;20049;-41
2023/09/29 01:47:49;;;;;;;10.13;9.02;;;14.50;99.90;;;;;;5011719;28;20049;-38
2023/09/29 01:50:22;;;;;;;11.45;9.45;;;14.50;99.90;;;;;;5012713;28;20514;-37
2023/09/29 01:52:51;;;;;;;12.00;8.95;;;14.50;99.90;;;;;;5013636;28;20041;-37
2023/09/29 01:55:20;;;;;;;12.27;9.38;;;14.40;99.90;;;;;;5016278;28;20510;-39
2023/09/29 01:57:50;;;;;;;11.55;8.73;;;14.40;99.90;;;;;;5018178;28;20160;-36
2023/09/29 02:00:35;;;;;;;15.95;8.70;;;14.40;99.90;;;;;;5011763;28;20126;-39
2023/09/29 02:03:06;;;;;;;9.40;7.88;;;14.40;99.90;;;;;;5017714;28;20061;-38
2023/09/29 02:05:34;;;;;;;13.40;9.80;;;14.40;99.90;;;;;;5026303;28;20037;-38
2023/09/29 02:08:04;;;;;;;10.13;8.95;;;14.40;99.90;;;;;;5015802;28;20316;-37
2023/09/29 02:10:32;;;;;;;12.50;8.65;;;14.40;99.90;;;;;;5019754;28;20564;-38
2023/09/29 02:13:00;;;;;;;15.10;8.73;;;14.40;99.90;;;;;;5019523;28;20115;-36
2023/09/29 02:15:31;;;;;;;10.73;8.90;;;14.40;99.90;;;;;;5009434;28;20050;-37
2023/09/29 02:17:58;;;;;;;13.75;9.75;;;14.40;99.90;;;;;;5016141;28;20081;-40
2023/09/29 02:20:30;;;;;;;14.45;9.27;;;14.40;99.90;;;;;;5012503;28;20094;-39
2023/09/29 02:22:59;;;;;;;13.13;9.60;;;14.40;99.90;;;;;;5015433;28;20065;-40
2023/09/29 02:25:29;;;;;;;14.35;10.15;;;14.40;99.90;;;;;;5019485;28;20088;-38
2023/09/29 02:27:59;;;;;;;13.65;9.45;;;14.40;99.90;;;;;;5013708;28;20042;-38
2023/09/29 02:30:28;;;;;;;11.23;8.88;;;14.30;99.90;;;;;;5011699;28;20101;-37
2023/09/29 02:32:56;;;;;;;11.75;9.15;;;14.30;99.90;;;;;;5012062;28;20046;-40
2023/09/29 02:35:24;;;;;;;17.30;9.48;;;14.30;99.90;;;;;;5011029;28;20050;-38
2023/09/29 02:37:55;;;;;;;16.02;9.25;;;14.30;99.90;;;;;;5015733;28;20128;-37
2023/09/29 02:40:23;;;;;;;13.40;9.77;;;14.20;99.90;;;;;;5018663;28;20550;-39
2023/09/29 02:42:51;;;;;;;13.02;9.05;;;14.20;99.90;;;;;;5018507;28;20454;-39
2023/09/29 02:45:19;;;;;;;13.90;10.02;;;14.20;99.90;;;;;;5020321;28;20038;-38
2023/09/29 02:47:47;;;;;;;12.82;9.00;;;14.20;99.90;;;;;;5017597;28;20049;-40
2023/09/29 02:50:18;;;;;;;11.55;9.32;;;14.20;99.90;;;;;;5014793;28;20041;-39
2023/09/29 02:52:45;;;;;;;11.20;8.80;;;14.20;99.90;;;;;;5012429;28;20050;-41
2023/09/29 02:55:14;;;;;;;13.35;9.90;;;14.20;99.90;;;;;;5017602;28;20128;-38
2023/09/29 02:57:43;;;;;;;12.38;9.38;;;14.20;99.90;;;;;;5011093;28;20081;-39
2023/09/29 03:00:18;;;;;;;13.10;9.68;;;14.10;99.90;;;;;;5011563;28;20533;-38
2023/09/29 03:02:47;;;;;;;12.40;10.13;;;14.10;99.90;;;;;;5012790;28;20104;-37
2023/09/29 03:05:16;;;;;;;14.23;10.18;;;14.10;99.90;;;;;;5013768;28;20044;-38
2023/09/29 03:07:44;;;;;;;15.27;9.68;;;14.10;99.90;;;;;;5010747;28;20069;-39
2023/09/29 03:10:14;;;;;;;14.25;9.60;;;14.00;99.90;;;;;;5017952;28;20179;-37
2023/09/29 03:12:43;;;;;;;13.32;9.50;;;14.00;99.90;;;;;;5023857;28;20124;-41
2023/09/29 03:15:16;;;;;;;14.55;9.75;;;14.00;99.90;;;;;;5032720;28;20117;-39
2023/09/29 03:17:45;;;;;;;12.50;9.90;;;14.00;99.90;;;;;;5020700;28;20079;-40
2023/09/29 03:20:14;;;;;;;13.32;9.57;;;14.00;99.90;;;;;;5020369;28;20056;-41
2023/09/29 03:22:45;;;;;;;17.67;9.90;;;14.00;99.90;;;;;;5019754;28;20107;-40
2023/09/29 03:25:20;;;;;;;12.25;8.88;;;14.00;99.90;;;;;;5016277;28;20414;-39
2023/09/29 03:27:48;;;;;;;12.95;9.48;;;14.00;99.90;;;;;;5018630;28;20050;-41
2023/09/29 03:30:15;;;;;;;12.93;9.13;;;14.00;99.90;;;;;;5022264;28;20549;-39
2023/09/29 03:32:44;;;;;;;15.57;10.18;;;14.00;99.90;;;;;;5016845;28;20503;-39
2023/09/29 03:35:13;;;;;;;11.95;8.90;;;14.10;99.90;;;;;;5009835;28;20046;-40
2023/09/29 03:37:43;;;;;;;15.35;10.52;;;14.00;99.90;;;;;;5015841;28;20049;-38
2023/09/29 03:40:14;;;;;;;13.98;10.13;;;14.10;99.90;;;;;;5017810;28;20069;-38
2023/09/29 03:42:41;;;;;;;12.95;9.45;;;14.10;99.90;;;;;;5029767;28;20535;-38
2023/09/29 03:45:11;;;;;;;14.48;10.13;;;14.10;99.90;;;;;;5026565;28;20056;-39
2023/09/29 03:47:39;;;;;;;13.60;10.02;;;14.00;99.90;;;;;;5030944;28;20050;-39
2023/09/29 03:50:11;;;;;;;12.27;9.25;;;14.10;99.90;;;;;;5023236;28;20045;-38
2023/09/29 03:52:42;;;;;;;12.32;9.13;;;14.10;99.90;;;;;;5012120;28;20144;-37
2023/09/29 03:55:12;;;;;;;12.68;9.52;;;14.10;99.90;;;;;;5023316;28;20034;-39
2023/09/29 03:57:41;;;;;;;13.40;10.15;;;14.10;99.90;;;;;;5028428;28;20129;-37
2023/09/29 04:00:12;;;;;;;15.57;10.30;;;14.10;99.90;;;;;;5020903;28;20065;-38
2023/09/29 04:02:43;;;;;;;12.57;9.17;;;14.20;99.90;;;;;;5029942;28;20038;-37
2023/09/29 04:05:11;;;;;;;15.93;10.73;;;14.20;99.90;;;;;;5020376;28;20038;-40
2023/09/29 04:07:39;;;;;;;13.27;9.60;;;14.30;99.90;;;;;;5023367;28;20050;-40
2023/09/29 04:10:13;;;;;;;16.65;10.00;;;14.20;99.90;;;;;;5020544;28;20046;-39
2023/09/29 04:12:47;;;;;;;14.15;9.43;;;14.30;99.90;;;;;;5016260;28;20054;-40
2023/09/29 04:15:15;;;;;;;12.23;9.40;;;14.30;99.90;;;;;;5021642;28;20083;-38
2023/09/29 04:17:43;;;;;;;15.05;9.50;;;14.30;99.90;;;;;;5030560;28;20042;-38
2023/09/29 04:20:12;;;;;;;13.73;9.57;;;14.30;99.90;;;;;;5023341;28;20045;-40
2023/09/29 04:22:39;;;;;;;13.80;8.80;;;14.30;99.90;;;;;;5020364;28;20470;-38
2023/09/29 04:25:10;;;;;;;15.63;10.43;;;14.30;99.90;;;;;;5027774;28;20552;-41
2023/09/29 04:27:39;;;;;;;12.43;9.40;;;14.30;99.90;;;;;;5021779;28;20050;-38
2023/09/29 04:30:08;;;;;;;12.10;8.95;;;14.30;99.90;;;;;;5011205;28;20046;-40
2023/09/29 04:32:36;;;;;;;12.18;10.07;;;14.20;99.90;;;;;;5010120;28;20104;-38
2023/09/29 04:35:07;;;;;;;13.07;9.70;;;14.20;99.90;;;;;;5018217;28;20513;-38
2023/09/29 04:37:35;;;;;;;13.63;9.75;;;14.20;99.90;;;;;;5008372;28;20136;-37
2023/09/29 04:40:03;;;;;;;16.42;9.77;;;14.10;99.90;;;;;;5012537;28;20049;-39
2023/09/29 04:42:31;;;;;;;14.20;9.05;;;14.10;99.90;;;;;;5011800;28;20041;-36
2023/09/29 04:44:58;;;;;;;14.02;10.27;;;14.10;99.90;;;;;;5007780;28;20578;-38
2023/09/29 04:47:27;;;;;;;12.70;9.52;;;14.10;99.90;;;;;;5009688;28;20053;-39
2023/09/29 04:49:57;;;;;;;14.27;9.80;;;14.10;99.90;;;;;;5008479;28;20070;-37
2023/09/29 04:52:25;;;;;;;18.10;10.60;;;14.10;99.90;;;;;;5009087;28;20100;-39
2023/09/29 04:54:53;;;;;;;14.50;10.02;;;14.00;99.90;;;;;;5011367;28;20576;-37
2023/09/29 04:57:21;;;;;;;14.02;10.10;;;14.00;99.90;;;;;;5014336;28;20522;-40
2023/09/29 04:59:49;;;;;;;17.55;10.70;;;14.00;99.90;;;;;;5014611;28;20461;-41
2023/09/29 05:02:17;;;;;;;16.80;10.60;;;14.00;99.90;;;;;;5012262;28;20745;-40
2023/09/29 05:04:44;;;;;;;17.77;10.20;;;14.00;99.90;;;;;;5008657;28;20061;-39
2023/09/29 05:07:12;;;;;;;13.85;10.50;;;13.90;99.90;;;;;;5011898;28;20422;-38
2023/09/29 05:09:39;;;;;;;12.50;9.57;;;14.00;99.90;;;;;;5013860;28;20050;-38
2023/09/29 05:12:07;;;;;;;14.57;10.18;;;13.90;99.90;;;;;;5018775;28;20045;-38
2023/09/29 05:14:34;;;;;;;16.27;10.50;;;13.90;99.90;;;;;;5020714;28;20081;-38
2023/09/29 05:17:02;;;;;;;20.45;11.57;;;13.90;99.90;;;;;;5016920;28;20057;-40
2023/09/29 05:19:29;;;;;;;16.17;10.40;;;13.90;99.90;;;;;;5020996;28;20112;-40
2023/09/29 05:21:56;;;;;;;14.63;11.18;;;13.90;99.90;;;;;;5021700;28;20416;-37
2023/09/29 05:24:23;;;;;;;17.60;10.75;;;13.90;99.90;;;;;;5025334;28;20060;-37
2023/09/29 05:26:51;;;;;;;15.35;10.50;;;13.90;99.90;;;;;;5023907;28;20784;-38
2023/09/29 05:29:18;;;;;;;16.02;10.98;;;13.90;99.90;;;;;;5025765;28;20064;-40
2023/09/29 05:31:45;;;;;;;16.85;11.07;;;14.00;99.90;;;;;;5022755;28;20056;-40
2023/09/29 05:34:13;;;;;;;24.73;10.65;;;14.00;99.90;;;;;;5016080;28;20041;-37
2023/09/29 05:36:40;;;;;;;17.95;10.68;;;14.10;99.90;;;;;;5022817;28;20099;-39
2023/09/29 05:39:07;;;;;;;13.85;9.90;;;14.20;99.90;;;;;;5019760;28;20049;-40
2023/09/29 05:41:35;;;;;;;14.30;9.90;;;14.30;99.90;;;;;;5025109;28;20567;-39
2023/09/29 05:44:02;;;;;;;16.02;10.85;;;14.40;99.90;;;;;;5021082;28;20092;-38
2023/09/29 05:46:29;;;;;;;16.67;10.10;;;14.40;99.90;;;;;;5017657;28;20114;-40
2023/09/29 05:48:57;;;;;;;17.27;10.75;;;14.50;99.90;;;;;;5024544;28;20564;-37
2023/09/29 05:51:24;;;;;;;12.15;9.85;;;14.60;99.90;;;;;;5023772;28;20061;-39
2023/09/29 05:53:51;;;;;;;12.43;9.82;;;14.60;99.90;;;;;;5021108;28;20457;-40
2023/09/29 05:56:19;;;;;;;15.07;10.48;;;14.70;99.90;;;;;;5014507;28;20393;-41
2023/09/29 05:58:46;;;;;;;15.20;10.18;;;14.80;99.90;;;;;;5020003;28;20038;-40
2023/09/29 06:01:15;;;;;;;14.40;10.77;;;14.80;99.90;;;;;;5020782;28;20103;-37
2023/09/29 06:03:43;;;;;;;18.40;10.95;;;14.80;99.90;;;;;;5021337;28;20037;-41
2023/09/29 06:06:10;;;;;;;17.38;11.02;;;14.90;99.90;;;;;;5034055;28;20034;-41
2023/09/29 06:08:38;;;;;;;16.25;12.88;;;15.00;99.90;;;;;;5032103;28;20116;-40
2023/09/29 06:11:08;;;;;;;27.05;12.98;;;15.10;99.90;;;;;;5033436;28;20339;-41
2023/09/29 06:13:35;;;;;;;16.00;11.32;;;15.20;99.90;;;;;;5037205;28;20104;-40
2023/09/29 06:16:03;;;;;;;13.60;10.50;;;15.40;99.90;;;;;;5033481;28;20042;-41
2023/09/29 06:18:31;;;;;;;17.38;11.13;;;15.50;99.90;;;;;;5028449;28;20521;-40
2023/09/29 06:20:58;;;;;;;14.13;11.23;;;15.50;99.90;;;;;;5021296;28;20056;-40
2023/09/29 06:23:26;;;;;;;13.40;10.60;;;15.60;99.90;;;;;;5021742;28;20441;-40
2023/09/29 06:26:00;;;;;;;18.30;10.57;;;15.60;99.90;;;;;;5017069;28;21401;-40
2023/09/29 06:28:28;;;;;;;17.55;10.75;;;15.70;99.90;;;;;;5032137;28;20053;-38
2023/09/29 06:30:56;;;;;;;11.85;10.05;;;15.80;99.90;;;;;;5034468;28;20701;-41
2023/09/29 06:33:28;;;;;;;15.82;12.30;;;15.70;99.90;;;;;;5016759;28;20054;-41
2023/09/29 06:35:55;;;;;;;16.60;11.68;;;15.80;99.90;;;;;;5024285;28;20057;-41
2023/09/29 06:38:23;;;;;;;14.90;10.88;;;15.90;99.90;;;;;;5017570;28;20453;-42
2023/09/29 06:40:51;;;;;;;15.60;12.10;;;15.90;99.90;;;;;;5016241;28;20044;-41
2023/09/29 06:43:18;;;;;;;15.52;11.43;;;16.00;99.90;;;;;;5014662;28;20049;-41
2023/09/29 06:45:46;;;;;;;20.60;11.75;;;16.00;99.90;;;;;;5025510;28;20479;-41
2023/09/29 06:48:17;;;;;;;17.08;12.70;;;16.00;99.90;;;;;;5021131;28;20137;-38
2023/09/29 06:50:46;;;;;;;14.43;11.57;;;16.10;99.90;;;;;;5030610;28;20081;-40
2023/09/29 06:53:14;;;;;;;18.77;11.52;;;16.10;99.90;;;;;;5030001;28;20080;-40
2023/09/29 06:55:41;;;;;;;18.40;12.48;;;16.20;99.90;;;;;;5018529;28;20137;-39
2023/09/29 06:58:08;;;;;;;17.38;13.23;;;16.30;99.90;;;;;;5019833;28;20386;-40
2023/09/29 07:00:36;;;;;;;20.13;13.77;;;16.40;99.90;;;;;;5017881;28;20120;-38
2023/09/29 07:03:03;;;;;;;18.55;12.77;;;16.60;99.90;;;;;;5021955;28;20038;-38
2023/09/29 07:05:31;;;;;;;21.63;12.90;;;16.80;99.90;;;;;;5025103;28;20449;-37
2023/09/29 07:07:58;;;;;;;18.52;12.55;;;17.00;99.90;;;;;;5024424;28;20636;-40
2023/09/29 07:10:25;;;;;;;16.40;11.50;;;17.10;99.90;;;;;;5020997;28;20053;-41
2023/09/29 07:12:54;;;;;;;21.15;11.57;;;17.30;99.90;;;;;;5022621;28;20141;-40
2023/09/29 07:15:21;;;;;;;18.83;10.85;;;17.50;99.90;;;;;;5017736;28;20506;-40
2023/09/29 07:17:50;;;;;;;16.52;11.32;;;17.70;99.90;;;;;;5014160;28;20399;-39
2023/09/29 07:20:18;;;;;;;13.02;9.98;;;17.80;99.90;;;;;;5018892;28;20542;-38
2023/09/29 07:22:45;;;;;;;12.70;10.20;;;17.90;99.90;;;;;;5012219;28;20056;-38
2023/09/29 07:25:14;;;;;;;14.20;10.52;;;18.10;99.90;;;;;;5021100;28;20467;-39
2023/09/29 07:27:42;;;;;;;16.70;10.73;;;18.30;99.90;;;;;;5020009;28;20046;-41
2023/09/29 07:30:09;;;;;;;16.10;10.63;;;18.50;99.90;;;;;;5014822;28;20049;-41
2023/09/29 07:32:41;;;;;;;13.18;10.57;;;18.60;99.90;;;;;;5011622;28;20438;-38
2023/09/29 07:35:09;;;;;;;11.45;9.77;;;18.90;99.90;;;;;;5012913;28;20057;-38
2023/09/29 07:37:38;;;;;;;16.67;10.90;;;19.10;99.90;;;;;;5011468;28;20057;-38
2023/09/29 07:40:09;;;;;;;15.40;10.38;;;19.30;99.90;;;;;;5009589;28;20045;-41
2023/09/29 07:42:37;;;;;;;13.95;9.43;;;19.40;99.90;;;;;;5009493;28;20038;-38
2023/09/29 07:45:04;;;;;;;13.38;9.77;;;19.60;99.90;;;;;;5013777;28;20115;-38
2023/09/29 07:47:32;;;;;;;12.35;9.98;;;19.60;99.90;;;;;;5013553;28;20054;-38
2023/09/29 07:49:59;;;;;;;13.95;8.95;;;19.50;99.90;;;;;;5019085;28;20046;-40
2023/09/29 07:52:28;;;;;;;11.38;9.05;;;19.70;99.90;;;;;;5008721;28;20053;-37
2023/09/29 07:54:56;;;;;;;11.68;9.02;;;19.80;99.90;;;;;;5020497;28;20052;-40
2023/09/29 07:57:23;;;;;;;10.52;9.43;;;19.90;99.90;;;;;;5010414;28;20060;-36
2023/09/29 07:59:52;;;;;;;11.43;8.57;;;20.00;99.90;;;;;;5009676;28;20050;-40
2023/09/29 08:02:19;;;;;;;12.25;9.10;;;20.10;99.90;;;;;;5013743;28;20087;-40
2023/09/29 08:04:47;;;;;;;10.35;8.18;;;20.20;99.90;;;;;;5014470;28;20072;-40
2023/09/29 08:07:14;;;;;;;13.73;8.95;;;20.40;99.90;;;;;;5012369;28;20045;-40
2023/09/29 08:09:41;;;;;;;10.98;9.27;;;20.50;99.90;;;;;;5017607;28;20049;-41
2023/09/29 08:12:08;;;;;;;10.45;8.27;;;20.50;99.90;;;;;;5016370;28;20050;-36
2023/09/29 08:14:36;;;;;;;10.63;9.30;;;20.60;99.90;;;;;;5008186;28;20052;-37
2023/09/29 08:17:03;;;;;;;11.38;8.68;;;20.70;99.90;;;;;;5013089;28;20110;-36
2023/09/29 08:19:30;;;;;;;13.85;9.48;;;20.70;99.90;;;;;;5015591;28;20125;-40
2023/09/29 08:21:58;;;;;;;14.57;9.35;;;20.60;99.90;;;;;;5010075;28;20318;-37
2023/09/29 08:24:25;;;;;;;13.55;9.15;;;20.70;99.90;;;;;;5014654;28;20049;-41
2023/09/29 08:26:52;;;;;;;10.38;9.27;;;20.80;99.90;;;;;;5015821;28;20065;-39
2023/09/29 08:29:20;;;;;;;10.75;8.90;;;20.80;99.90;;;;;;5008055;28;20045;-39
2023/09/29 08:31:47;;;;;;;11.70;8.95;;;20.90;99.90;;;;;;5013544;28;20530;-40
2023/09/29 08:34:15;;;;;;;10.98;8.68;;;21.10;99.90;;;;;;5009323;28;20112;-39
2023/09/29 08:36:42;;;;;;;13.77;9.48;;;21.30;99.90;;;;;;5010566;28;20052;-40
2023/09/29 08:39:10;;;;;;;15.27;9.52;;;21.50;99.90;;;;;;5009246;28;20125;-36
2023/09/29 08:41:54;;;;;;;13.60;9.70;;;21.90;99.90;;;;;;5010979;28;20088;-39
2023/09/29 08:44:27;;;;;;;15.38;9.48;;;22.20;99.90;;;;;;5019651;28;20038;-39
2023/09/29 08:47:01;;;;;;;10.07;9.02;;;22.60;99.90;;;;;;5023431;28;20029;-41
2023/09/29 08:49:29;;;;;;;11.98;9.45;;;22.80;99.90;;;;;;5015958;28;20058;-39
2023/09/29 08:52:19;;;;;;;11.45;9.55;;;22.90;99.90;;;;;;5010955;28;20152;-38
2023/09/29 08:54:47;;;;;;;14.63;10.05;;;22.80;99.90;;;;;;5011556;28;20069;-38
2023/09/29 08:57:16;;;;;;;12.57;10.10;;;23.00;99.90;;;;;;5010254;28;20564;-39
2023/09/29 08:59:45;;;;;;;11.65;9.20;;;23.10;99.90;;;;;;5016263;28;20057;-43
2023/09/29 09:02:12;;;;;;;10.07;9.02;;;23.20;99.90;;;;;;5014201;28;20041;-40
2023/09/29 09:04:40;;;;;;;10.65;9.60;;;23.20;99.90;;;;;;5014751;28;20411;-39
2023/09/29 09:07:07;;;;;;;10.82;9.82;;;23.40;99.90;;;;;;5016370;28;20408;-39
2023/09/29 09:09:36;;;;;;;11.07;9.93;;;23.60;99.90;;;;;;5013235;28;20046;-39
2023/09/29 09:12:04;;;;;;;14.07;11.07;;;24.00;99.90;;;;;;5016132;28;20050;-38
2023/09/29 09:14:42;;;;;;;10.90;9.85;;;24.20;99.90;;;;;;5017503;28;20061;-40
2023/09/29 09:17:10;;;;;;;9.98;9.05;;;24.30;99.90;;;;;;5014252;28;20042;-40
2023/09/29 09:19:45;;;;;;;10.80;9.70;;;24.20;99.90;;;;;;5016884;28;20478;-41
2023/09/29 09:22:16;;;;;;;11.90;9.70;;;24.00;99.90;;;;;;5015374;28;20041;-41
2023/09/29 09:24:49;;;;;;;12.00;9.75;;;24.10;99.90;;;;;;5013139;28;20057;-35
2023/09/29 09:27:16;;;;;;;10.70;9.68;;;24.20;99.90;;;;;;5013254;28;20084;-38
2023/09/29 09:29:45;;;;;;;14.00;9.93;;;24.20;99.90;;;;;;5023482;28;20049;-39
2023/09/29 09:32:14;;;;;;;11.93;9.80;;;24.30;99.90;;;;;;5014683;28;20042;-40
2023/09/29 09:34:42;;;;;;;11.48;9.48;;;24.40;99.90;;;;;;5011110;28;20526;-37
2023/09/29 09:37:11;;;;;;;10.13;9.07;;;24.50;99.90;;;;;;5013735;28;20065;-40
2023/09/29 09:39:42;;;;;;;11.07;8.70;;;24.70;99.90;;;;;;5020106;28;20052;-38
2023/09/29 09:42:12;;;;;;;11.50;9.07;;;24.80;99.90;;;;;;5018029;28;20395;-40
2023/09/29 09:44:40;;;;;;;11.98;8.52;;;24.90;99.90;;;;;;5023111;28;20085;-40
2023/09/29 09:47:14;;;;;;;11.00;8.25;;;24.60;99.90;;;;;;5027479;28;20048;-38
2023/09/29 09:49:48;;;;;;;15.98;8.70;;;24.60;99.90;;;;;;5016779;28;20498;-40
2023/09/29 09:52:29;;;;;;;9.68;8.70;;;24.80;99.90;;;;;;5019047;28;20115;-41
2023/09/29 09:54:58;;;;;;;10.38;8.95;;;25.10;99.90;;;;;;5022153;28;20057;-37
2023/09/29 09:57:33;;;;;;;12.23;9.43;;;25.50;99.90;;;;;;5025528;28;20080;-39
2023/09/29 10:00:12;;;;;;;10.93;8.88;;;25.70;99.90;;;;;;5021007;28;20046;-41
2023/09/29 10:02:46;;;;;;;11.25;10.02;;;25.80;99.90;;;;;;5020282;28;20052;-38
2023/09/29 10:05:30;;;;;;;10.30;9.05;;;26.10;99.90;;;;;;5026502;28;20046;-38
2023/09/29 10:08:02;;;;;;;11.40;8.57;;;26.40;99.90;;;;;;5022744;28;20382;-39
2023/09/29 10:10:38;;;;;;;10.48;8.82;;;26.50;99.90;;;;;;5016449;28;20080;-40
2023/09/29 10:13:15;;;;;;;10.63;8.25;;;26.60;99.90;;;;;;5017795;28;20042;-39
2023/09/29 10:15:42;;;;;;;9.90;8.93;;;26.40;99.90;;;;;;5017211;28;20084;-40
2023/09/29 10:18:18;;;;;;;9.80;8.80;;;26.70;99.90;;;;;;5019995;28;20050;-38
2023/09/29 10:20:51;;;;;;;10.07;8.73;;;26.80;99.90;;;;;;5014249;28;20054;-40
2023/09/29 10:23:18;;;;;;;9.20;8.35;;;27.10;99.90;;;;;;5012533;28;20517;-39
2023/09/29 10:25:59;;;;;;;11.20;8.50;;;26.80;99.90;;;;;;5020769;28;20099;-39
2023/09/29 10:28:31;;;;;;;11.50;8.95;;;26.30;99.90;;;;;;5022770;28;20103;-40
2023/09/29 10:31:09;;;;;;;12.02;8.50;;;26.40;99.90;;;;;;5013140;28;20399;-40
2023/09/29 10:33:51;;;;;;;9.07;8.15;;;26.40;99.90;;;;;;5010245;28;20054;-38
2023/09/29 10:36:24;;;;;;;10.32;8.63;;;26.80;99.90;;;;;;5010822;28;20065;-41
2023/09/29 10:38:54;;;;;;;9.95;8.77;;;26.90;99.90;;;;;;5015774;28;20058;-40
2023/09/29 10:41:23;;;;;;;15.10;9.98;;;27.10;99.90;;;;;;5018593;28;20077;-39
2023/09/29 10:44:04;;;;;;;12.90;9.50;;;27.20;99.90;;;;;;5022637;28;20038;-40
2023/09/29 10:46:31;;;;;;;11.50;8.50;;;27.20;99.90;;;;;;5020448;28;20053;-40
2023/09/29 10:48:59;;;;;;;12.45;9.52;;;27.20;99.90;;;;;;5024847;28;20034;-41
2023/09/29 10:51:30;;;;;;;14.00;9.20;;;27.20;99.90;;;;;;5019653;28;20085;-38
2023/09/29 10:54:06;;;;;;;13.32;9.27;;;27.30;99.90;;;;;;5026632;28;20049;-39
2023/09/29 10:56:36;;;;;;;11.35;9.60;;;27.30;99.90;;;;;;5019816;28;20049;-39
2023/09/29 10:59:09;;;;;;;13.30;8.70;;;27.30;99.90;;;;;;5031185;28;20526;-39
2023/09/29 11:01:38;;;;;;;14.40;9.57;;;27.20;99.90;;;;;;5022838;28;20121;-39
2023/09/29 11:04:08;;;;;;;12.38;9.27;;;27.50;99.90;;;;;;5017600;28;20037;-37
2023/09/29 11:06:46;;;;;;;15.23;8.70;;;27.50;99.90;;;;;;5020155;28;20050;-38
2023/09/29 11:09:19;;;;;;;9.70;8.80;;;27.40;99.90;;;;;;5021142;28;20069;-37
2023/09/29 11:11:48;;;;;;;9.40;8.60;;;27.00;99.90;;;;;;5018121;28;20042;-37
2023/09/29 11:14:17;;;;;;;9.45;8.50;;;26.70;99.90;;;;;;5012566;28;20104;-41
2023/09/29 11:16:57;;;;;;;9.95;8.95;;;26.80;99.90;;;;;;5010796;28;20080;-41
2023/09/29 11:19:30;;;;;;;15.38;8.50;;;26.50;99.90;;;;;;5013386;28;20573;-38
2023/09/29 11:22:02;;;;;;;9.23;8.32;;;26.70;99.90;;;;;;5014802;28;20064;-39
2023/09/29 11:24:43;;;;;;;9.85;8.35;;;26.90;99.90;;;;;;5011474;28;20519;-39
2023/09/29 11:27:11;;;;;;;9.05;8.15;;;27.00;99.90;;;;;;5009510;28;20054;-40
2023/09/29 11:29:39;;;;;;;11.50;8.75;;;26.80;99.90;;;;;;5009714;28;20046;-38
2023/09/29 11:32:08;;;;;;;10.57;8.70;;;26.90;99.90;;;;;;5011729;28;20050;-41
2023/09/29 11:34:35;;;;;;;9.35;8.45;;;27.00;99.90;;;;;;5009146;28;20057;-37
2023/09/29 11:37:04;;;;;;;11.00;8.20;;;27.10;99.90;;;;;;5013213;28;20048;-39
2023/09/29 11:39:32;;;;;;;8.90;8.00;;;27.10;99.90;;;;;;5011225;28;20494;-38
2023/09/29 11:41:59;;;;;;;8.82;7.85;;;26.70;99.90;;;;;;5016151;28;20072;-37
2023/09/29 11:44:26;;;;;;;8.57;7.82;;;26.90;99.90;;;;;;5015676;28;20140;-37
2023/09/29 11:46:54;;;;;;;9.55;7.80;;;26.80;99.90;;;;;;5012157;28;20629;-38
2023/09/29 11:49:22;;;;;;;10.18;8.88;;;27.00;99.90;;;;;;5015763;28;20052;-42
2023/09/29 11:51:52;;;;;;;11.32;8.65;;;27.10;99.90;;;;;;5026607;28;20091;-37
2023/09/29 11:54:20;;;;;;;9.50;8.05;;;27.10;99.90;;;;;;5024111;28;20054;-38
2023/09/29 11:56:47;;;;;;;9.30;8.40;;;27.30;99.90;;;;;;5031240;28;20118;-39
2023/09/29 11:59:14;;;;;;;10.10;8.18;;;27.40;99.90;;;;;;5014735;28;20054;-38
2023/09/29 12:01:42;;;;;;;11.25;8.70;;;27.50;99.90;;;;;;5013625;28;20048;-38
2023/09/29 12:04:09;;;;;;;10.05;8.38;;;27.80;99.90;;;;;;5010411;28;20042;-38
2023/09/29 12:06:39;;;;;;;10.52;8.55;;;28.00;99.90;;;;;;5013633;28;20050;-38
2023/09/29 12:09:06;;;;;;;9.38;8.40;;;28.20;99.90;;;;;;5012852;28;20046;-40
2023/09/29 12:11:33;;;;;;;10.73;8.25;;;28.20;99.90;;;;;;5011521;28;20118;-37
2023/09/29 12:14:03;;;;;;;9.50;8.00;;;28.10;99.90;;;;;;5009519;28;20064;-38
2023/09/29 12:16:31;;;;;;;10.13;7.65;;;28.50;99.90;;;;;;5009437;28;20112;-38
2023/09/29 12:18:58;;;;;;;9.60;8.32;;;28.70;99.90;;;;;;5013918;28;20046;-37
2023/09/29 12:21:26;;;;;;;9.43;8.20;;;29.40;99.90;;;;;;5018690;28;20097;-37
2023/09/29 12:23:54;;;;;;;10.55;8.60;;;30.20;99.90;;;;;;5015930;28;20536;-41
2023/09/29 12:26:23;;;;;;;10.27;8.40;;;30.80;99.90;;;;;;5011698;28;20213;-39
2023/09/29 12:28:50;;;;;;;10.60;8.80;;;31.40;99.10;;;;;;5015336;28;20030;-39
2023/09/29 12:31:18;;;;;;;10.13;8.27;;;32.20;97.10;;;;;;5017833;28;20073;-40
2023/09/29 12:33:45;;;;;;;9.90;8.43;;;32.60;95.50;;;;;;5010213;28;20537;-42
2023/09/29 12:36:14;;;;;;;9.30;8.45;;;32.60;93.50;;;;;;5009649;28;20042;-39
2023/09/29 12:38:43;;;;;;;10.80;9.07;;;33.00;92.60;;;;;;5009397;28;20132;-39
2023/09/29 12:41:12;;;;;;;9.57;8.55;;;33.90;90.90;;;;;;5009291;28;20045;-38
2023/09/29 12:43:39;;;;;;;8.90;8.07;;;34.40;88.30;;;;;;5014772;28;20212;-41
2023/09/29 12:46:06;;;;;;;9.00;8.20;;;35.70;84.50;;;;;;5011806;28;20129;-42
2023/09/29 12:48:34;;;;;;;9.38;8.45;;;36.90;79.40;;;;;;5016944;28;20132;-41
2023/09/29 12:51:01;;;;;;;9.10;7.63;;;36.80;76.60;;;;;;5012509;28;20041;-42